Time;durP1;ratioP1;P1;durP2;ratioP2;P2;SDS_P1;SDS_P2;PMS_P1;PMS_P2;Temp;Humidity;BMP_temperature;BMP_pressure;BME280_temperature;BME280_humidity;BME280_pressure;Samples;Min_cycle;Max_cycle;Signal;HPM_P1;HPM_P2
2023/09/10 00:04:23;;;;;;;18.30;16.10;;;;;;;14.36;78.82;100239.30;217595;1262;141732;-74
2023/09/10 00:09:26;;;;;;;22.60;15.30;;;;;;;14.34;78.94;100234.77;217789;1260;140142;-83
2023/09/10 00:14:30;;;;;;;18.40;14.60;;;;;;;14.32;78.81;100230.87;217624;1261;141381;-78
2023/09/10 00:19:34;;;;;;;23.70;14.50;;;;;;;14.21;78.49;100223.95;217423;1257;141937;-75
2023/09/10 00:24:36;;;;;;;17.80;13.80;;;;;;;14.07;78.72;100221.34;217609;1261;145124;-83
2023/09/10 00:29:40;;;;;;;17.50;14.50;;;;;;;14.00;79.20;100215.34;217348;1262;141553;-79
2023/09/10 00:34:41;;;;;;;14.40;13.00;;;;;;;13.95;79.07;100213.98;217930;1257;140424;-76
2023/09/10 00:39:45;;;;;;;15.10;13.40;;;;;;;13.85;79.14;100208.61;217585;1260;140982;-82
2023/09/10 00:44:47;;;;;;;16.80;15.00;;;;;;;13.79;79.47;100204.40;217632;1261;142181;-80
2023/09/10 00:49:50;;;;;;;16.10;14.50;;;;;;;13.81;79.66;100207.95;217824;1257;141206;-77
2023/09/10 00:54:53;;;;;;;19.30;14.60;;;;;;;13.85;79.81;100206.73;218638;1260;140994;-75
2023/09/10 00:59:57;;;;;;;16.50;15.00;;;;;;;13.86;79.69;100207.92;218181;1256;142495;-78
2023/09/10 01:05:02;;;;;;;16.10;14.50;;;;;;;13.87;79.59;100214.20;218303;1258;140773;-79
2023/09/10 01:10:07;;;;;;;17.00;15.30;;;;;;;13.81;79.85;100209.02;217581;1257;140675;-80
2023/09/10 01:15:29;;;;;;;20.00;15.30;;;;;;;13.70;79.36;100206.95;217847;1260;140957;-85
2023/09/10 01:21:03;;;;;;;16.30;14.60;;;;;;;13.58;79.67;100207.54;219622;1257;141067;-77
2023/09/10 01:26:08;;;;;;;16.30;14.60;;;;;;;13.53;79.81;100208.80;218480;1258;142019;-78
2023/09/10 01:31:12;;;;;;;16.90;15.10;;;;;;;13.50;79.89;100210.07;218405;1257;141298;-77
2023/09/10 01:36:30;;;;;;;15.80;12.90;;;;;;;13.48;79.88;100205.91;218326;1262;141791;-82
2023/09/10 01:41:35;;;;;;;16.40;14.80;;;;;;;13.40;80.20;100209.61;217958;1257;143097;-74
2023/09/10 01:46:40;;;;;;;18.90;15.90;;;;;;;13.34;80.48;100212.06;218271;1257;141161;-76
2023/09/10 01:51:44;;;;;;;16.60;14.90;;;;;;;13.30;80.09;100209.27;218468;1257;141215;-73
2023/09/10 01:56:47;;;;;;;17.30;14.80;;;;;;;13.21;80.36;100204.32;218247;1261;141030;-76
2023/09/10 02:01:50;;;;;;;17.90;15.70;;;;;;;13.11;80.63;100200.73;217703;1261;140692;-85
2023/09/10 02:06:53;;;;;;;16.80;14.70;;;;;;;13.11;80.78;100202.00;218024;1260;140528;-82
2023/09/10 02:11:57;;;;;;;23.00;16.30;;;;;;;13.11;80.73;100201.02;218326;1262;142467;-82
2023/09/10 02:17:02;;;;;;;20.60;13.90;;;;;;;13.10;80.69;100203.14;217531;1262;140673;-77
2023/09/10 02:22:05;;;;;;;16.20;14.50;;;;;;;13.05;80.50;100200.48;217382;1262;142617;-78
2023/09/10 02:27:09;;;;;;;15.90;14.30;;;;;;;12.99;80.14;100194.90;217446;1263;141468;-71
2023/09/10 02:32:12;;;;;;;15.60;14.00;;;;;;;12.91;80.41;100199.99;218357;1262;140739;-72
2023/09/10 02:37:16;;;;;;;18.60;14.30;;;;;;;12.89;80.55;100193.91;217574;1263;141025;-71
2023/09/10 02:42:18;;;;;;;15.00;13.50;;;;;;;12.83;80.43;100192.63;218041;1262;141572;-73
2023/09/10 02:47:22;;;;;;;13.80;12.40;;;;;;;12.79;80.51;100194.27;218370;1257;142267;-80
2023/09/10 02:52:26;;;;;;;14.70;13.20;;;;;;;12.78;80.73;100199.34;218612;1257;141238;-80
2023/09/10 02:57:29;;;;;;;16.90;13.40;;;;;;;12.74;80.55;100194.98;217603;1259;141206;-78
2023/09/10 03:02:31;;;;;;;13.40;12.00;;;;;;;12.61;80.22;100189.73;217577;1257;153521;-80
2023/09/10 03:07:35;;;;;;;16.90;14.50;;;;;;;12.51;80.85;100188.94;218443;1257;141637;-72
2023/09/10 03:12:38;;;;;;;16.70;13.50;;;;;;;12.50;81.09;100193.83;219317;1257;140724;-74
2023/09/10 03:17:41;;;;;;;16.00;14.30;;;;;;;12.56;81.52;100194.31;218878;1257;141058;-79
2023/09/10 03:22:44;;;;;;;14.60;13.10;;;;;;;12.53;81.04;100192.02;219257;1257;141878;-77
2023/09/10 03:27:48;;;;;;;15.40;13.90;;;;;;;12.43;80.40;100189.80;220352;1257;140851;-78
2023/09/10 03:32:51;;;;;;;16.40;13.60;;;;;;;12.34;80.80;100183.34;219213;1260;140882;-78
2023/09/10 03:37:54;;;;;;;17.10;13.40;;;;;;;12.32;80.90;100181.58;219402;1257;141941;-77
2023/09/10 03:42:58;;;;;;;17.50;15.40;;;;;;;12.33;81.10;100177.81;218422;1258;139907;-74
2023/09/10 03:48:02;;;;;;;26.80;13.80;;;;;;;12.32;80.94;100171.74;217922;1260;140252;-79
2023/09/10 03:53:05;;;;;;;17.30;14.80;;;;;;;12.24;80.55;100166.81;219407;1260;234947;-79
2023/09/10 03:58:10;;;;;;;31.60;13.50;;;;;;;12.17;80.62;100160.01;218621;1257;140576;-76
2023/09/10 04:03:13;;;;;;;17.70;13.30;;;;;;;12.14;80.85;100161.74;217460;1258;142198;-79
2023/09/10 04:08:17;;;;;;;16.50;14.80;;;;;;;12.10;80.62;100164.97;217689;1260;140465;-76
2023/09/10 04:13:20;;;;;;;17.40;12.60;;;;;;;12.07;80.98;100166.78;217708;1257;142513;-79
2023/09/10 04:18:24;;;;;;;16.60;12.50;;;;;;;12.02;80.80;100165.36;218147;1256;140446;-77
2023/09/10 04:23:28;;;;;;;16.30;12.70;;;;;;;11.88;80.62;100163.73;218151;1257;140942;-77
2023/09/10 04:28:31;;;;;;;13.50;11.80;;;;;;;11.76;80.97;100166.23;218183;1257;140565;-75
2023/09/10 04:33:35;;;;;;;15.60;13.70;;;;;;;11.69;81.02;100159.34;217792;1257;142145;-77
2023/09/10 04:38:39;;;;;;;13.80;12.50;;;;;;;11.66;81.53;100154.62;218870;1257;141338;-79
2023/09/10 04:43:42;;;;;;;22.20;15.20;;;;;;;11.68;81.77;100152.08;217935;1257;140891;-76
2023/09/10 04:48:46;;;;;;;26.90;14.50;;;;;;;11.71;81.62;100157.70;218914;1257;141820;-77
2023/09/10 04:53:52;;;;;;;19.70;15.10;;;;;;;11.75;82.03;100154.55;218111;1257;143731;-78
2023/09/10 04:58:55;;;;;;;16.40;14.80;;;;;;;11.85;81.92;100157.05;217651;1257;141758;-76
2023/09/10 05:03:59;;;;;;;16.40;13.50;;;;;;;11.92;82.34;100157.36;218245;1257;140898;-74
2023/09/10 05:09:03;;;;;;;19.10;14.10;;;;;;;12.03;82.56;100150.42;217998;1258;141085;-75
2023/09/10 05:14:07;;;;;;;15.90;13.20;;;;;;;12.16;82.63;100155.54;219041;1256;141312;-75
2023/09/10 05:19:10;;;;;;;28.00;15.00;;;;;;;12.31;82.81;100156.66;220280;1257;142472;-77
2023/09/10 05:24:13;;;;;;;37.40;16.50;;;;;;;12.51;83.19;100161.08;220540;1256;140882;-77
2023/09/10 05:29:15;;;;;;;16.50;14.60;;;;;;;12.72;83.04;100161.23;220141;1257;142407;-76
2023/09/10 05:34:19;;;;;;;19.30;17.00;;;;;;;12.96;83.51;100161.29;219381;1257;142786;-73
2023/09/10 05:39:22;;;;;;;20.80;18.60;;;;;;;13.26;84.54;100159.77;218195;1257;143005;-75
2023/09/10 05:44:25;;;;;;;25.30;20.00;;;;;;;13.57;85.51;100163.38;219069;1257;141907;-73
2023/09/10 05:49:28;;;;;;;21.10;18.50;;;;;;;13.92;86.71;100169.23;218603;1257;141465;-72
2023/09/10 05:54:31;;;;;;;24.90;19.80;;;;;;;14.23;87.05;100172.92;219075;1256;141068;-74
2023/09/10 05:59:33;;;;;;;41.70;23.60;;;;;;;14.48;87.19;100171.60;218178;1257;141440;-73
2023/09/10 06:04:36;;;;;;;23.70;19.70;;;;;;;14.73;87.66;100173.15;217969;1257;140464;-74
2023/09/10 06:09:38;;;;;;;24.90;20.30;;;;;;;15.01;88.29;100177.42;217750;1256;141398;-72
2023/09/10 06:14:41;;;;;;;24.50;20.40;;;;;;;15.29;88.77;100179.63;217865;1256;141106;-74
2023/09/10 06:19:48;;;;;;;22.40;20.10;;;;;;;15.57;88.90;100182.25;217782;1257;141299;-77
2023/09/10 06:24:51;;;;;;;24.00;21.20;;;;;;;15.82;89.38;100181.38;217904;1260;141127;-75
2023/09/10 06:29:54;;;;;;;25.30;22.60;;;;;;;16.13;89.93;100180.29;217707;1257;140584;-73
2023/09/10 06:34:58;;;;;;;21.00;17.80;;;;;;;16.45;89.69;100173.40;217339;1256;141396;-69
2023/09/10 06:40:01;;;;;;;22.30;19.60;;;;;;;16.80;89.75;100174.85;218025;1256;140293;-73
2023/09/10 06:45:04;;;;;;;23.80;21.40;;;;;;;17.25;89.19;100176.98;217634;1257;141559;-71
2023/09/10 06:50:07;;;;;;;21.00;18.80;;;;;;;17.65;89.01;100174.86;218620;1257;235358;-76
2023/09/10 06:55:10;;;;;;;21.30;19.10;;;;;;;18.04;87.85;100177.73;217713;1260;140955;-73
2023/09/10 07:00:14;;;;;;;18.90;16.80;;;;;;;18.60;87.16;100183.13;217950;1256;142401;-75
2023/09/10 07:05:17;;;;;;;23.00;18.30;;;;;;;19.60;86.26;100189.43;219335;1256;140915;-76
2023/09/10 07:10:21;;;;;;;18.10;15.40;;;;;;;20.80;84.86;100191.00;217760;1257;140599;-74
2023/09/10 07:15:26;;;;;;;18.30;16.10;;;;;;;22.31;82.59;100190.58;220366;1256;140288;-77
2023/09/10 07:20:28;;;;;;;17.00;15.40;;;;;;;23.95;80.06;100194.40;217810;1257;143061;-78
2023/09/10 07:25:31;;;;;;;18.80;13.40;;;;;;;25.32;77.28;100194.06;217500;1257;142497;-78
2023/09/10 07:30:34;;;;;;;15.40;13.70;;;;;;;26.08;74.01;100199.04;217621;1259;141389;-74
2023/09/10 07:35:39;;;;;;;;;;;;;;;26.49;71.61;100197.86;219587;1256;141299;-76
2023/09/10 07:40:42;;;;;;;16.40;14.50;;;;;;;26.80;69.69;100198.44;219153;1256;126936;-75
2023/09/10 07:45:47;;;;;;;15.90;14.30;;;;;;;27.17;68.33;100201.52;217685;1259;160537;-75
2023/09/10 07:50:56;;;;;;;15.40;13.80;;;;;;;27.80;67.44;100199.07;218034;1257;141157;-77
2023/09/10 07:56:00;;;;;;;15.80;14.20;;;;;;;28.07;65.71;100195.76;218269;1256;141006;-75
2023/09/10 08:01:03;;;;;;;14.90;13.60;;;;;;;27.91;64.28;100192.66;218055;1257;140758;-74
2023/09/10 08:06:07;;;;;;;17.70;16.10;;;;;;;27.95;63.80;100193.77;218424;1256;141481;-76
2023/09/10 08:11:10;;;;;;;15.30;12.50;;;;;;;28.02;63.58;100190.52;217635;1260;140233;-78
2023/09/10 08:16:15;;;;;;;21.20;15.30;;;;;;;28.04;62.71;100194.95;217302;1256;139886;-75
2023/09/10 08:21:20;;;;;;;16.10;13.80;;;;;;;28.01;61.77;100191.40;217600;1257;139992;-74
2023/09/10 08:26:24;;;;;;;17.30;15.60;;;;;;;28.04;61.71;100187.42;217447;1257;140216;-75
2023/09/10 08:31:27;;;;;;;14.20;11.40;;;;;;;28.11;61.37;100184.35;217259;1256;141049;-74
2023/09/10 08:36:30;;;;;;;15.60;13.90;;;;;;;28.11;60.27;100180.61;217518;1257;139884;-78
2023/09/10 08:41:46;;;;;;;14.10;12.80;;;;;;;28.10;59.71;100176.27;217378;1256;141864;-76
2023/09/10 08:46:51;;;;;;;11.80;10.80;;;;;;;28.06;59.64;100179.45;217207;1257;140813;-77
2023/09/10 08:51:56;;;;;;;12.70;11.50;;;;;;;28.17;59.23;100181.84;217752;1256;140672;-75
2023/09/10 08:57:00;;;;;;;11.40;10.30;;;;;;;28.35;58.68;100172.34;218765;1256;139634;-80
2023/09/10 09:02:02;;;;;;;13.00;11.30;;;;;;;28.32;57.86;100170.60;217758;1260;142018;-79
2023/09/10 09:07:09;;;;;;;12.90;11.60;;;;;;;28.44;57.48;100166.29;217465;1256;140151;-78
2023/09/10 09:12:13;;;;;;;12.50;11.20;;;;;;;28.50;57.14;100170.38;219292;1256;140262;-77
2023/09/10 09:17:20;;;;;;;13.00;11.80;;;;;;;28.62;56.78;100169.44;217718;1259;140182;-77
2023/09/10 09:22:28;;;;;;;11.80;10.80;;;;;;;28.70;55.90;100169.69;219139;1256;140312;-75
2023/09/10 09:27:33;;;;;;;12.80;11.70;;;;;;;28.62;55.18;100168.09;219729;1257;140216;-73
2023/09/10 09:32:39;;;;;;;12.60;11.10;;;;;;;28.57;55.05;100166.13;218911;1257;140873;-80
2023/09/10 09:37:43;;;;;;;11.80;10.70;;;;;;;28.69;54.78;100164.02;217859;1256;139174;-79
2023/09/10 09:42:47;;;;;;;20.80;11.70;;;;;;;28.91;54.63;100160.46;217625;1258;139726;-77
2023/09/10 09:47:50;;;;;;;12.20;10.80;;;;;;;29.13;53.62;100158.67;217558;1256;139933;-77
2023/09/10 09:52:55;;;;;;;10.90;9.80;;;;;;;29.21;52.80;100149.23;217828;1257;140026;-79
2023/09/10 09:57:58;;;;;;;8.90;8.10;;;;;;;29.20;52.53;100139.35;217396;1256;139909;-82
2023/09/10 10:03:02;;;;;;;11.70;10.50;;;;;;;29.20;51.44;100136.89;217355;1260;141958;-81
2023/09/10 10:08:07;;;;;;;13.50;8.90;;;;;;;29.20;51.78;100132.64;217317;1256;140324;-78
2023/09/10 10:13:09;;;;;;;15.60;9.10;;;;;;;29.39;50.05;100124.42;217351;1256;152953;-81
2023/09/10 10:18:14;;;;;;;10.20;9.30;;;;;;;29.56;50.32;100121.02;217484;1256;139441;-79
2023/09/10 10:23:18;;;;;;;;;;;;;;;29.88;50.36;100120.91;217743;1260;139700;-82
2023/09/10 10:28:30;;;;;;;20.40;9.00;;;;;;;29.98;49.87;100123.61;218038;1260;128133;-77
2023/09/10 10:33:37;;;;;;;14.10;10.50;;;;;;;30.03;49.22;100112.49;217283;1257;139409;-78
2023/09/10 10:38:44;;;;;;;10.80;9.70;;;;;;;30.05;48.98;100112.48;217241;1256;140648;-76
2023/09/10 10:43:53;;;;;;;8.70;7.90;;;;;;;30.02;48.45;100109.34;217322;1260;142142;-78
2023/09/10 10:49:01;;;;;;;8.90;8.00;;;;;;;29.87;47.27;100102.59;217341;1257;141081;-80
2023/09/10 10:54:04;;;;;;;10.30;9.00;;;;;;;29.97;48.38;100092.02;217193;1260;416926;-81
2023/09/10 10:59:07;;;;;;;9.90;8.90;;;;;;;30.29;48.39;100092.69;217450;1260;140079;-78
2023/09/10 11:04:19;;;;;;;9.60;8.50;;;;;;;30.38;47.55;100080.88;217452;1256;140343;-78
2023/09/10 11:09:35;;;;;;;11.00;9.40;;;;;;;30.34;46.87;100076.77;218269;1256;139803;-80
2023/09/10 11:14:57;;;;;;;9.90;8.90;;;;;;;30.35;46.51;100071.77;217459;1256;140035;-79
2023/09/10 11:20:00;;;;;;;8.20;7.50;;;;;;;30.39;46.51;100069.59;217848;1260;141274;-79
2023/09/10 11:25:07;;;;;;;16.10;9.60;;;;;;;30.57;46.63;100068.09;217216;1256;139990;-80
2023/09/10 11:30:20;;;;;;;10.20;8.70;;;;;;;30.64;46.08;100064.07;217629;1256;140266;-82
2023/09/10 11:35:22;;;;;;;9.10;8.20;;;;;;;30.60;46.13;100067.77;217728;1257;140867;-82
2023/09/10 11:40:25;;;;;;;9.00;8.30;;;;;;;30.80;46.53;100068.74;217460;1257;139755;-82
2023/09/10 11:45:32;;;;;;;8.20;7.60;;;;;;;30.86;45.68;100064.46;217624;1256;139516;-82
2023/09/10 11:50:35;;;;;;;9.10;8.30;;;;;;;30.88;45.27;100067.02;218550;1257;140640;-79
2023/09/10 11:55:38;;;;;;;6.60;6.10;;;;;;;30.86;45.31;100060.54;217304;1257;139622;-81
2023/09/10 12:00:42;;;;;;;9.60;8.20;;;;;;;30.96;45.22;100060.09;217569;1256;139463;-83
2023/09/10 12:05:46;;;;;;;10.90;8.10;;;;;;;31.04;45.01;100061.75;217561;1256;139429;-79
2023/09/10 12:10:54;;;;;;;9.80;8.60;;;;;;;31.04;44.55;100058.70;217689;1256;140369;-82
2023/09/10 12:15:57;;;;;;;9.90;7.50;;;;;;;31.11;44.30;100059.46;217473;1257;140486;-79
2023/09/10 12:21:00;;;;;;;7.80;7.00;;;;;;;31.12;43.83;100056.02;217548;1257;140627;-80
2023/09/10 12:26:04;;;;;;;6.40;5.80;;;;;;;31.12;43.86;100050.84;217459;1257;139451;-86
2023/09/10 12:31:06;;;;;;;8.20;7.40;;;;;;;30.99;43.49;100042.30;217529;1257;140537;-82
2023/09/10 12:36:09;;;;;;;8.50;7.60;;;;;;;30.88;43.27;100039.95;217371;1260;142747;-80
2023/09/10 12:41:16;;;;;;;7.70;7.00;;;;;;;30.64;42.74;100036.65;217707;1260;142425;-81
2023/09/10 12:46:19;;;;;;;10.30;7.10;;;;;;;30.63;43.48;100034.28;217353;1259;139938;-80
2023/09/10 12:51:21;;;;;;;8.10;7.40;;;;;;;30.68;43.55;100027.78;217554;1259;140781;-83
2023/09/10 12:56:24;;;;;;;13.10;8.00;;;;;;;30.69;43.36;100021.27;217954;1256;140344;-77
2023/09/10 13:01:27;;;;;;;12.10;7.10;;;;;;;30.60;43.43;100017.77;217815;1257;140736;-89
2023/09/10 13:06:30;;;;;;;7.60;6.90;;;;;;;30.67;43.48;100019.18;219376;1257;139851;-79
2023/09/10 13:11:33;;;;;;;8.90;7.80;;;;;;;30.63;42.46;100019.27;218759;1257;140226;-79
2023/09/10 13:16:38;;;;;;;11.00;7.50;;;;;;;30.38;41.98;100015.26;219097;1259;140096;-77
2023/09/10 13:21:41;;;;;;;8.90;7.80;;;;;;;30.42;42.70;100013.67;220350;1256;140326;-80
2023/09/10 13:26:45;;;;;;;8.80;7.90;;;;;;;30.51;43.01;100010.74;218364;1259;139736;-79
2023/09/10 13:31:47;;;;;;;10.60;7.10;;;;;;;30.61;43.06;100011.11;217401;1260;139876;-75
2023/09/10 13:36:51;;;;;;;8.40;7.00;;;;;;;30.59;42.87;100006.83;217696;1260;139709;-80
2023/09/10 13:41:55;;;;;;;6.80;6.10;;;;;;;30.53;42.95;100004.43;218150;1256;141152;-73
2023/09/10 13:46:58;;;;;;;9.90;8.80;;;;;;;30.43;42.25;99998.15;218176;1260;141346;-82
2023/09/10 13:52:01;;;;;;;8.50;7.50;;;;;;;30.38;42.05;99994.98;217589;1260;139654;-80
2023/09/10 13:57:04;;;;;;;10.40;8.50;;;;;;;30.35;42.05;99995.63;217597;1258;139190;-79
2023/09/10 14:02:06;;;;;;;11.00;8.40;;;;;;;30.28;42.05;99994.92;217480;1257;139034;-86
2023/09/10 14:07:09;;;;;;;7.70;6.50;;;;;;;30.24;42.42;99993.94;217521;1257;140163;-82
2023/09/10 14:12:11;;;;;;;8.50;7.50;;;;;;;30.28;42.62;99993.35;217670;1260;139593;-72
2023/09/10 14:17:14;;;;;;;8.40;7.70;;;;;;;30.07;42.09;99999.58;217410;1260;150579;-78
2023/09/10 14:22:16;;;;;;;9.20;7.70;;;;;;;29.84;42.50;99995.96;217527;1256;139814;-79
2023/09/10 14:27:19;;;;;;;8.70;7.80;;;;;;;29.82;42.66;99991.60;217242;1259;140207;-82
2023/09/10 14:32:22;;;;;;;11.10;8.70;;;;;;;29.86;42.91;99986.98;217258;1261;139647;-80
2023/09/10 14:37:25;;;;;;;9.00;6.90;;;;;;;29.89;42.88;99987.61;218109;1256;139838;-81
2023/09/10 14:42:27;;;;;;;7.80;7.10;;;;;;;29.85;42.97;99986.88;217482;1257;139563;-75
2023/09/10 14:47:35;;;;;;;10.10;7.40;;;;;;;29.74;42.87;99984.83;217205;1256;140174;-78
2023/09/10 14:52:37;;;;;;;7.40;6.60;;;;;;;29.57;42.88;99983.88;217355;1257;141602;-81
2023/09/10 14:57:42;;;;;;;7.60;7.00;;;;;;;29.28;42.59;99981.39;217365;1256;140693;-80
2023/09/10 15:02:44;;;;;;;8.60;7.50;;;;;;;29.13;42.55;99976.40;218513;1260;140215;-83
2023/09/10 15:07:47;;;;;;;8.50;7.50;;;;;;;29.18;43.50;99975.20;219555;1256;139873;-81
2023/09/10 15:12:49;;;;;;;7.90;7.20;;;;;;;29.10;43.74;99964.48;219716;1256;139702;-75
2023/09/10 15:17:51;;;;;;;8.30;7.50;;;;;;;29.05;43.96;99957.42;218381;1260;140211;-78
2023/09/10 15:22:54;;;;;;;12.60;7.60;;;;;;;28.87;44.08;99956.03;217566;1257;141291;-83
2023/09/10 15:27:56;;;;;;;8.50;7.70;;;;;;;28.77;45.19;99951.36;217403;1256;140928;-78
2023/09/10 15:32:59;;;;;;;8.00;7.30;;;;;;;28.71;45.61;99950.86;217699;1257;140434;-81
2023/09/10 15:38:04;;;;;;;9.70;7.50;;;;;;;28.59;46.03;99943.02;218161;1260;140220;-77
2023/09/10 15:43:07;;;;;;;8.70;7.90;;;;;;;28.46;46.33;99938.36;217555;1259;139741;-78
2023/09/10 15:48:11;;;;;;;7.90;7.20;;;;;;;28.31;46.68;99936.36;217976;1256;140117;-82
2023/09/10 15:53:15;;;;;;;23.40;9.60;;;;;;;28.13;47.53;99934.07;217190;1262;140491;-80
2023/09/10 15:58:19;;;;;;;11.10;7.50;;;;;;;27.89;48.07;99935.09;217072;1256;141266;-80
2023/09/10 16:03:23;;;;;;;9.00;8.10;;;;;;;27.65;48.70;99939.11;217566;1256;140324;-80
2023/09/10 16:08:29;;;;;;;11.00;7.80;;;;;;;27.40;49.36;99944.71;217513;1260;141444;-81
2023/09/10 16:13:34;;;;;;;8.80;7.80;;;;;;;27.11;50.11;99942.98;217845;1256;141245;-79
2023/09/10 16:18:38;;;;;;;20.40;8.70;;;;;;;26.81;50.80;99941.64;217417;1256;139862;-85
2023/09/10 16:23:42;;;;;;;11.20;8.60;;;;;;;26.56;51.80;99937.48;217390;1260;140252;-74
2023/09/10 16:28:47;;;;;;;9.70;8.60;;;;;;;26.33;52.66;99936.79;217509;1261;142410;-80
2023/09/10 16:33:51;;;;;;;12.90;8.10;;;;;;;26.09;53.48;99932.43;217495;1259;139805;-86
2023/09/10 16:38:55;;;;;;;12.40;9.10;;;;;;;25.80;53.84;99932.73;217922;1257;141417;-88
2023/09/10 16:44:00;;;;;;;9.50;8.60;;;;;;;25.52;54.43;99931.63;217442;1261;140822;-89
2023/09/10 16:49:05;;;;;;;10.30;8.60;;;;;;;25.21;54.70;99928.09;217366;1259;139869;-84
2023/09/10 16:54:09;;;;;;;9.90;8.90;;;;;;;24.91;55.12;99929.70;218241;1261;139410;-82
2023/09/10 16:59:14;;;;;;;11.10;9.00;;;;;;;24.64;55.79;99928.52;218076;1256;139718;-82
2023/09/10 17:04:29;;;;;;;9.30;8.40;;;;;;;24.38;56.27;99928.33;218107;1260;210347;-81
2023/09/10 17:09:34;;;;;;;11.70;9.10;;;;;;;24.12;56.95;99934.84;218639;1256;139200;-84
2023/09/10 17:14:36;;;;;;;8.60;7.80;;;;;;;23.88;57.37;99931.39;217565;1256;140871;-90
2023/09/10 17:19:38;;;;;;;11.70;9.20;;;;;;;23.54;57.44;99932.10;217209;1258;139990;-83
2023/09/10 17:24:40;;;;;;;10.50;9.50;;;;;;;23.09;58.35;99931.05;217396;1256;139647;-85
2023/09/10 17:29:42;;;;;;;11.80;9.90;;;;;;;22.85;58.91;99928.77;217535;1260;139924;-77
2023/09/10 17:34:45;;;;;;;10.50;9.50;;;;;;;22.65;59.67;99928.20;217785;1258;140927;-87
2023/09/10 17:39:47;;;;;;;14.10;9.90;;;;;;;22.47;59.85;99930.66;217714;1258;140763;-76
2023/09/10 17:44:51;;;;;;;9.80;8.70;;;;;;;22.25;60.33;99929.60;218506;1257;140787;-74
2023/09/10 17:49:54;;;;;;;12.90;9.70;;;;;;;22.06;60.63;99933.35;217645;1256;140439;-74
2023/09/10 17:55:09;;;;;;;15.70;11.20;;;;;;;21.77;61.13;99930.20;217342;1260;141528;-78
2023/09/10 18:00:13;;;;;;;12.10;10.80;;;;;;;21.46;61.67;99932.81;218039;1257;140998;-76
2023/09/10 18:05:16;;;;;;;13.30;9.00;;;;;;;21.30;62.34;99937.86;217303;1261;143491;-73
2023/09/10 18:10:20;;;;;;;9.20;8.30;;;;;;;21.16;62.77;99940.09;218026;1257;141206;-72
2023/09/10 18:15:23;;;;;;;12.70;10.30;;;;;;;20.92;62.83;99939.05;217542;1261;142174;-78
2023/09/10 18:20:27;;;;;;;10.70;9.10;;;;;;;20.63;63.43;99943.73;217616;1257;142163;-75
2023/09/10 18:25:31;;;;;;;15.80;10.80;;;;;;;20.37;63.85;99945.10;217591;1257;140016;-76
2023/09/10 18:30:33;;;;;;;10.50;8.90;;;;;;;20.24;64.49;99947.27;217689;1257;141306;-75
2023/09/10 18:35:37;;;;;;;14.30;11.10;;;;;;;20.11;64.92;99951.59;217432;1256;221701;-82
2023/09/10 18:40:45;;;;;;;10.00;9.00;;;;;;;19.99;65.20;99949.68;217277;1256;140806;-79
2023/09/10 18:45:48;;;;;;;11.10;10.00;;;;;;;19.68;65.18;99949.45;218786;1262;141839;-80
2023/09/10 18:50:51;;;;;;;10.80;9.70;;;;;;;19.41;66.05;99946.77;217922;1256;141403;-75
2023/09/10 18:55:56;;;;;;;10.60;9.70;;;;;;;19.31;66.58;99936.05;217450;1261;140784;-76
2023/09/10 19:01:01;;;;;;;11.70;10.10;;;;;;;19.10;67.05;99934.08;217519;1262;141375;-75
2023/09/10 19:06:05;;;;;;;13.10;9.70;;;;;;;18.89;67.69;99932.67;217968;1262;140428;-76
2023/09/10 19:11:09;;;;;;;10.50;9.40;;;;;;;18.68;68.06;99932.31;218126;1256;141026;-74
2023/09/10 19:16:17;;;;;;;11.70;10.10;;;;;;;18.54;68.75;99935.05;218304;1258;140759;-73
2023/09/10 19:21:21;;;;;;;12.50;10.60;;;;;;;18.55;69.02;99939.73;217565;1261;142002;-74
2023/09/10 19:26:25;;;;;;;12.50;11.30;;;;;;;18.56;69.18;99944.21;218213;1258;141442;-74
2023/09/10 19:31:31;;;;;;;10.70;9.80;;;;;;;18.49;68.93;99945.55;217480;1262;141005;-72
2023/09/10 19:36:38;;;;;;;11.70;10.70;;;;;;;18.32;69.05;99948.65;218170;1260;141543;-71
2023/09/10 19:41:42;;;;;;;13.00;10.70;;;;;;;18.27;69.53;99947.98;217719;1261;141034;-71
2023/09/10 19:46:47;;;;;;;12.40;11.20;;;;;;;18.21;69.53;99952.51;217932;1257;140402;-73
2023/09/10 19:51:54;;;;;;;11.90;10.70;;;;;;;18.01;69.64;99954.67;217534;1260;140900;-72
2023/09/10 19:56:58;;;;;;;13.20;11.70;;;;;;;17.91;69.96;99954.19;218228;1261;140833;-77
2023/09/10 20:02:04;;;;;;;17.00;12.20;;;;;;;17.80;70.16;99946.56;217509;1260;141532;-77
2023/09/10 20:07:08;;;;;;;12.30;11.00;;;;;;;17.68;70.35;99942.15;217659;1259;140291;-75
2023/09/10 20:12:12;;;;;;;14.00;11.80;;;;;;;17.52;70.44;99943.10;218098;1260;140242;-72
2023/09/10 20:17:17;;;;;;;32.70;12.50;;;;;;;17.44;70.74;99934.88;217712;1262;140542;-75
2023/09/10 20:22:20;;;;;;;16.10;13.10;;;;;;;17.37;71.05;99931.74;219155;1260;141700;-76
2023/09/10 20:27:24;;;;;;;12.70;10.60;;;;;;;17.29;71.31;99930.84;217752;1257;141274;-73
2023/09/10 20:32:29;;;;;;;15.80;12.00;;;;;;;17.19;71.21;99930.64;217436;1261;142920;-73
2023/09/10 20:37:32;;;;;;;13.30;10.80;;;;;;;17.13;71.58;99924.73;218163;1257;140187;-76
2023/09/10 20:42:36;;;;;;;12.40;11.10;;;;;;;16.96;71.49;99924.98;217735;1260;140304;-75
2023/09/10 20:47:39;;;;;;;13.10;11.20;;;;;;;16.80;71.73;99929.05;219325;1257;162258;-75
2023/09/10 20:52:45;;;;;;;19.10;12.20;;;;;;;16.69;72.00;99924.11;217885;1260;141254;-69
2023/09/10 20:57:49;;;;;;;13.00;9.80;;;;;;;16.52;72.23;99923.39;219116;1258;141861;-78
2023/09/10 21:02:55;;;;;;;13.70;10.20;;;;;;;16.32;72.47;99924.11;218123;1260;143520;-81
2023/09/10 21:08:00;;;;;;;14.70;10.00;;;;;;;16.26;73.05;99920.23;219154;1257;142932;-74
2023/09/10 21:13:07;;;;;;;13.40;12.00;;;;;;;16.19;73.21;99919.80;218502;1257;140934;-73
2023/09/10 21:18:14;;;;;;;21.40;11.70;;;;;;;16.13;73.27;99917.17;218012;1257;140577;-75
2023/09/10 21:23:19;;;;;;;13.70;11.90;;;;;;;16.01;73.75;99916.16;217850;1261;142931;-77
2023/09/10 21:28:23;;;;;;;16.40;11.80;;;;;;;15.95;74.34;99915.61;217970;1257;141402;-75
2023/09/10 21:33:27;;;;;;;12.50;10.80;;;;;;;15.95;74.32;99913.20;217910;1260;141121;-76
2023/09/10 21:38:30;;;;;;;13.80;12.30;;;;;;;15.80;74.09;99917.35;217706;1261;140029;-81
2023/09/10 21:43:34;;;;;;;14.80;10.90;;;;;;;15.76;74.49;99917.45;218004;1260;141481;-77
2023/09/10 21:48:38;;;;;;;12.40;11.20;;;;;;;15.70;74.46;99914.58;217709;1257;141008;-79
2023/09/10 21:53:43;;;;;;;13.40;12.00;;;;;;;15.62;74.55;99908.41;218399;1257;140348;-82
2023/09/10 21:58:46;;;;;;;13.20;11.80;;;;;;;15.59;74.72;99908.56;217884;1260;141358;-79
2023/09/10 22:03:49;;;;;;;16.30;11.50;;;;;;;15.58;74.96;99906.66;218015;1260;141035;-84
2023/09/10 22:08:53;;;;;;;16.40;11.60;;;;;;;15.56;74.80;99906.05;217675;1260;141426;-73
2023/09/10 22:13:57;;;;;;;17.20;11.30;;;;;;;15.41;74.47;99905.73;218399;1257;141386;-75
2023/09/10 22:19:01;;;;;;;15.30;11.60;;;;;;;15.19;74.76;99904.93;218369;1257;140594;-76
2023/09/10 22:24:04;;;;;;;13.50;12.10;;;;;;;15.06;75.35;99902.11;218396;1257;140855;-77
2023/09/10 22:29:08;;;;;;;20.10;13.30;;;;;;;14.99;75.62;99903.95;217502;1257;141637;-78
2023/09/10 22:34:12;;;;;;;15.70;12.90;;;;;;;14.97;76.05;99900.14;217655;1257;140618;-78
2023/09/10 22:39:16;;;;;;;14.80;13.00;;;;;;;14.96;76.24;99902.71;218476;1256;141194;-81
2023/09/10 22:44:18;;;;;;;15.40;13.80;;;;;;;14.93;76.29;99906.29;218283;1257;140617;-81
2023/09/10 22:49:21;;;;;;;13.20;11.80;;;;;;;14.88;76.22;99906.36;217859;1257;140557;-79